createdAt,value
2022-08-06T00:00:26.772Z,85.500000
2022-08-06T00:05:29.687Z,85.500000
2022-08-06T00:10:29.247Z,85.700000
2022-08-06T00:16:06.382Z,85.400000
2022-08-06T00:20:31.328Z,85.300000
2022-08-06T00:25:35.290Z,85.300000
2022-08-06T00:30:31.308Z,85.300000
2022-08-06T00:35:32.344Z,85.000000
2022-08-06T00:40:33.385Z,85.100000
2022-08-06T00:45:42.059Z,85.300000
2022-08-06T00:50:35.458Z,85.300000
2022-08-06T00:55:37.641Z,85.100000
2022-08-06T01:00:40.530Z,85.500000
2022-08-06T01:06:52.780Z,85.200000
2022-08-06T01:06:57.875Z,85.200000
2022-08-06T01:10:42.330Z,84.900000
2022-08-06T01:16:07.247Z,84.900000
2022-08-06T01:22:01.320Z,85.100000
2022-08-06T01:22:30.422Z,85.100000
2022-08-06T01:25:46.214Z,85.100000
2022-08-06T01:30:43.309Z,85.400000
2022-08-06T01:35:47.833Z,85.300000
2022-08-06T01:40:45.314Z,85.500000
2022-08-06T01:45:55.152Z,85.500000
2022-08-06T01:50:46.965Z,85.700000
2022-08-06T01:55:59.157Z,85.800000
2022-08-06T02:00:48.914Z,85.900000
2022-08-06T02:05:53.662Z,86.100000
2022-08-06T02:10:50.885Z,86.300000
2022-08-06T02:15:58.053Z,86.000000
2022-08-06T02:20:52.989Z,86.000000
2022-08-06T02:25:54.013Z,85.900000
2022-08-06T02:30:54.632Z,86.300000
2022-08-06T02:36:00.357Z,86.000000
2022-08-06T02:40:56.463Z,86.000000
2022-08-06T02:45:59.090Z,86.200000
2022-08-06T02:50:58.346Z,86.100000
2022-08-06T02:55:59.391Z,86.000000
2022-08-06T03:01:00.428Z,86.000000
2022-08-06T03:06:01.380Z,86.200000
2022-08-06T03:11:02.413Z,86.300000
2022-08-06T03:16:03.446Z,86.383333
2022-08-06T03:21:04.383Z,86.400000
2022-08-06T03:26:05.435Z,86.400000
2022-08-06T03:31:06.454Z,86.600000
2022-08-06T03:36:07.356Z,86.500000
2022-08-06T03:41:08.407Z,86.500000
2022-08-06T03:46:09.344Z,86.600000
2022-08-06T03:51:10.403Z,86.500000
2022-08-06T03:56:14.544Z,86.600000
2022-08-06T04:01:12.589Z,86.400000
2022-08-06T04:06:16.021Z,86.600000
2022-08-06T04:12:13.214Z,86.500000
2022-08-06T04:12:58.822Z,86.500000
2022-08-06T04:16:15.478Z,86.500000
2022-08-06T04:20:16.513Z,86.500000
2022-08-06T04:25:17.420Z,86.500000
2022-08-06T04:30:18.321Z,87.000000
2022-08-06T04:36:05.102Z,86.700000
2022-08-06T04:40:34.676Z,87.000000
2022-08-06T04:46:18.543Z,86.900000
2022-08-06T04:50:23.253Z,87.400000
2022-08-06T04:55:24.239Z,87.100000
2022-08-06T05:00:33.636Z,87.400000
2022-08-06T05:05:25.141Z,87.000000
2022-08-06T05:10:26.767Z,87.500000
2022-08-06T05:15:27.276Z,87.200000
2022-08-06T05:20:29.453Z,87.000000
2022-08-06T05:25:29.028Z,87.300000
2022-08-06T05:30:30.005Z,87.300000
2022-08-06T05:35:40.231Z,87.100000
2022-08-06T05:40:53.146Z,87.100000
2022-08-06T05:45:37.296Z,87.400000
2022-08-06T05:50:37.339Z,87.100000
2022-08-06T05:55:38.882Z,87.200000
2022-08-06T06:00:43.245Z,87.100000
2022-08-06T06:06:07.032Z,86.900000
2022-08-06T06:10:43.945Z,86.600000
2022-08-06T06:16:00.664Z,86.300000
2022-08-06T06:21:03.567Z,86.200000
2022-08-06T06:25:44.157Z,86.200000
2022-08-06T06:30:52.423Z,86.200000
2022-08-06T06:35:54.810Z,85.900000
2022-08-06T06:40:53.468Z,85.800000
2022-08-06T06:46:05.557Z,85.600000
2022-08-06T06:50:49.982Z,85.600000
2022-08-06T06:55:56.569Z,85.200000
2022-08-06T07:01:26.754Z,85.200000
2022-08-06T07:06:02.295Z,85.000000
2022-08-06T07:10:53.098Z,84.900000
2022-08-06T07:15:54.483Z,85.000000
2022-08-06T07:20:54.867Z,84.600000
2022-08-06T07:25:55.895Z,84.400000
2022-08-06T07:31:00.109Z,84.000000
2022-08-06T07:35:57.792Z,83.700000
2022-08-06T07:40:58.740Z,83.700000
2022-08-06T07:45:59.691Z,83.300000
2022-08-06T07:51:00.528Z,83.300000
2022-08-06T07:56:01.622Z,82.500000
2022-08-06T08:01:02.513Z,82.666667
2022-08-06T08:06:03.664Z,82.200000
2022-08-06T08:11:04.452Z,81.600000
2022-08-06T08:16:05.403Z,81.100000
2022-08-06T08:21:06.427Z,80.200000
2022-08-06T08:26:07.368Z,79.000000
2022-08-06T08:31:15.530Z,78.600000
2022-08-06T08:36:11.592Z,78.700000
2022-08-06T08:41:10.539Z,78.100000
2022-08-06T08:46:11.519Z,76.900000
2022-08-06T08:51:12.538Z,75.800000
2022-08-06T08:57:08.777Z,75.900000
2022-08-06T08:58:39.409Z,75.900000
2022-08-06T08:58:40.634Z,75.900000
2022-08-06T09:01:51.815Z,76.000000
2022-08-06T09:06:29.129Z,76.000000
2022-08-06T09:10:16.496Z,75.800000
2022-08-06T09:15:18.842Z,74.900000
2022-08-06T09:20:18.207Z,74.800000
2022-08-06T09:25:19.757Z,74.600000
2022-08-06T09:30:30.050Z,73.900000
2022-08-06T09:35:42.920Z,73.600000
2022-08-06T09:40:22.335Z,73.400000
2022-08-06T09:45:42.782Z,73.000000
2022-08-06T09:50:24.329Z,72.900000
2022-08-06T09:55:25.344Z,72.900000
2022-08-06T10:00:26.889Z,72.700000
2022-08-06T10:05:29.955Z,73.400000
2022-08-06T10:10:33.223Z,73.800000
2022-08-06T10:15:57.057Z,73.600000
2022-08-06T10:20:30.147Z,73.800000
2022-08-06T10:25:31.210Z,73.700000
2022-08-06T10:30:36.102Z,73.600000
2022-08-06T10:35:33.726Z,73.600000
2022-08-06T10:40:33.983Z,73.500000
2022-08-06T10:45:40.660Z,72.900000
2022-08-06T10:50:41.678Z,72.200000
2022-08-06T10:55:43.927Z,71.700000
2022-08-06T11:00:37.950Z,72.300000
2022-08-06T11:05:48.283Z,71.700000
2022-08-06T11:10:40.466Z,71.300000
2022-08-06T11:15:40.950Z,70.700000
2022-08-06T11:20:41.899Z,70.600000
2022-08-06T11:25:43.812Z,70.400000
2022-08-06T11:30:46.136Z,71.300000
2022-08-06T11:35:49.124Z,71.000000
2022-08-06T11:40:45.947Z,70.100000
2022-08-06T11:46:20.778Z,70.200000
2022-08-06T11:50:47.974Z,69.500000
2022-08-06T11:55:48.925Z,70.300000
2022-08-06T12:00:49.850Z,68.600000
2022-08-06T12:05:56.816Z,69.100000
2022-08-06T12:10:51.823Z,68.700000
2022-08-06T12:16:10.234Z,68.000000
2022-08-06T12:20:54.600Z,67.900000
2022-08-06T12:25:54.514Z,66.800000
2022-08-06T12:30:55.459Z,67.100000
2022-08-06T12:35:56.763Z,67.600000
2022-08-06T12:40:57.538Z,66.900000
2022-08-06T12:46:06.589Z,67.100000
2022-08-06T12:50:59.396Z,67.400000
2022-08-06T12:56:00.599Z,68.400000
2022-08-06T13:01:01.818Z,68.900000
2022-08-06T13:06:02.629Z,67.983333
2022-08-06T13:11:03.625Z,67.216667
2022-08-06T13:16:04.608Z,68.400000
2022-08-06T13:21:06.419Z,68.200000
2022-08-06T13:26:15.991Z,67.900000
2022-08-06T13:31:07.505Z,67.600000
2022-08-06T13:36:08.441Z,67.800000
2022-08-06T13:41:09.450Z,67.900000
2022-08-06T13:46:11.707Z,67.900000
2022-08-06T13:51:21.764Z,68.500000
2022-08-06T13:56:12.296Z,68.300000
2022-08-06T14:01:13.416Z,68.400000
2022-08-06T14:06:14.285Z,68.300000
2022-08-06T14:11:15.702Z,68.500000
2022-08-06T14:15:16.225Z,68.600000
2022-08-06T14:20:23.780Z,68.500000
2022-08-06T14:25:18.329Z,68.100000
2022-08-06T14:30:22.250Z,68.200000
2022-08-06T14:35:20.372Z,68.700000
2022-08-06T14:40:32.777Z,67.800000
2022-08-06T14:45:22.494Z,67.700000
2022-08-06T14:50:36.112Z,68.100000
2022-08-06T14:55:24.497Z,68.100000
2022-08-06T15:00:34.707Z,68.000000
2022-08-06T15:05:42.559Z,67.600000
2022-08-06T15:10:32.029Z,67.600000
2022-08-06T15:20:33.819Z,69.100000
2022-08-06T15:25:59.811Z,68.800000
2022-08-06T15:30:35.687Z,69.100000
2022-08-06T15:35:43.550Z,69.100000
2022-08-06T15:40:37.436Z,69.100000
2022-08-06T15:45:51.532Z,69.200000
2022-08-06T15:50:48.237Z,69.200000
2022-08-06T15:55:40.448Z,69.000000
2022-08-06T16:00:58.335Z,68.900000
2022-08-06T16:06:12.215Z,68.700000
2022-08-06T16:10:43.449Z,68.500000
2022-08-06T16:15:45.256Z,68.900000
2022-08-06T16:20:45.137Z,68.900000
2022-08-06T16:26:09.578Z,69.200000
2022-08-06T16:31:14.338Z,69.000000
2022-08-06T16:35:48.041Z,69.700000
2022-08-06T16:40:54.676Z,69.700000
2022-08-06T16:45:49.980Z,69.700000
2022-08-06T16:50:51.494Z,70.100000
2022-08-06T16:55:51.805Z,70.200000
2022-08-06T17:01:00.397Z,70.300000
2022-08-06T17:02:13.692Z,70.300000
2022-08-06T17:05:53.792Z,70.300000
2022-08-06T17:10:58.189Z,70.300000
2022-08-06T17:15:55.742Z,70.200000
2022-08-06T17:20:56.765Z,70.100000
2022-08-06T17:26:01.397Z,71.000000
2022-08-06T17:30:58.902Z,71.200000
2022-08-06T17:36:29.665Z,71.500000
2022-08-06T17:41:00.969Z,71.500000
2022-08-06T17:46:25.255Z,71.800000
2022-08-06T17:51:09.442Z,72.133333
2022-08-06T17:56:03.870Z,72.616667
2022-08-06T18:01:10.369Z,72.800000
2022-08-06T18:06:05.818Z,73.200000
2022-08-06T18:11:06.780Z,73.400000
2022-08-06T18:16:07.750Z,73.500000
2022-08-06T18:21:24.917Z,73.600000
2022-08-06T18:26:09.604Z,73.700000
2022-08-06T18:36:12.015Z,74.200000
2022-08-06T18:41:15.144Z,74.300000
2022-08-06T18:46:13.910Z,74.800000
2022-08-06T18:51:16.206Z,74.900000
2022-08-06T18:55:17.817Z,75.200000
2022-08-06T19:05:26.879Z,75.700000
2022-08-06T19:10:18.852Z,76.000000
2022-08-06T19:15:24.247Z,76.300000
2022-08-06T19:20:29.038Z,76.300000
2022-08-06T19:25:28.689Z,76.700000
2022-08-06T19:30:41.234Z,76.800000
2022-08-06T19:36:09.001Z,77.000000
2022-08-06T19:40:28.692Z,77.200000
2022-08-06T19:46:30.785Z,77.300000
2022-08-06T19:46:35.130Z,77.300000
2022-08-06T19:50:30.588Z,77.300000
2022-08-06T19:56:05.345Z,77.300000
2022-08-06T20:06:17.818Z,77.400000
2022-08-06T20:10:36.145Z,77.500000
2022-08-06T20:15:40.627Z,77.400000
2022-08-06T20:20:36.478Z,77.500000
2022-08-06T20:25:40.694Z,77.500000
2022-08-06T20:30:39.948Z,77.600000
2022-08-06T20:35:39.266Z,77.700000
2022-08-06T20:41:57.284Z,77.600000
2022-08-06T20:42:03.650Z,77.600000
2022-08-06T20:45:56.961Z,77.800000
2022-08-06T20:50:46.830Z,77.900000
2022-08-06T20:55:43.325Z,78.000000
2022-08-06T21:00:44.298Z,78.000000
2022-08-06T21:05:50.916Z,78.200000
2022-08-06T21:10:46.178Z,78.300000
2022-08-06T21:16:09.788Z,78.400000
2022-08-06T21:20:50.854Z,78.600000
2022-08-06T21:25:49.117Z,78.600000
2022-08-06T21:30:53.479Z,78.800000
2022-08-06T21:35:51.417Z,78.800000
2022-08-06T21:40:52.136Z,78.900000
2022-08-06T21:46:04.619Z,79.100000
2022-08-06T21:50:54.139Z,79.100000
2022-08-06T21:56:38.259Z,79.200000
2022-08-06T22:00:56.616Z,79.400000
2022-08-06T22:06:21.238Z,79.400000
2022-08-06T22:12:37.117Z,79.500000
2022-08-06T22:12:40.737Z,79.500000
2022-08-06T22:15:59.278Z,79.500000
2022-08-06T22:21:00.339Z,79.700000
2022-08-06T22:26:01.460Z,79.800000
2022-08-06T22:31:05.470Z,79.900000
2022-08-06T22:36:11.719Z,79.900000
2022-08-06T22:41:04.359Z,79.900000
2022-08-06T22:46:05.358Z,80.100000
2022-08-06T22:51:10.544Z,80.000000
2022-08-06T22:56:07.363Z,80.200000
2022-08-06T23:01:23.144Z,80.500000
2022-08-06T23:06:09.231Z,80.800000
2022-08-06T23:11:10.753Z,80.900000
2022-08-06T23:16:11.375Z,80.700000
2022-08-06T23:21:12.384Z,80.900000
2022-08-06T23:26:13.416Z,81.000000
2022-08-06T23:31:14.843Z,81.200000
2022-08-06T23:36:15.606Z,81.200000
2022-08-06T23:40:17.766Z,81.200000
2022-08-06T23:45:17.618Z,81.600000
2022-08-06T23:50:18.221Z,81.600000
2022-08-06T23:55:25.635Z,81.500000
